createdAt,value
2024-01-15T00:00:37.040Z,2.14
2024-01-15T00:03:25.094Z,2.09
2024-01-15T00:05:53.202Z,2.08
2024-01-15T00:08:21.129Z,2.04
2024-01-15T00:10:49.263Z,2.02
2024-01-15T00:13:17.156Z,2.02
2024-01-15T00:15:45.282Z,1.99
2024-01-15T00:18:13.396Z,1.96
2024-01-15T00:20:41.366Z,1.91
2024-01-15T00:23:09.310Z,1.88
2024-01-15T00:25:37.237Z,1.83
2024-01-15T00:28:05.830Z,1.84
2024-01-15T00:30:33.791Z,1.84
2024-01-15T00:33:02.038Z,1.80
2024-01-15T00:35:30.017Z,1.77
2024-01-15T00:37:57.912Z,1.78
2024-01-15T00:40:26.925Z,1.77
2024-01-15T00:42:54.887Z,1.71
2024-01-15T00:45:22.798Z,1.72
2024-01-15T00:47:50.860Z,1.72
2024-01-15T00:50:19.283Z,1.72
2024-01-15T00:52:47.136Z,1.67
2024-01-15T00:55:15.217Z,1.70
2024-01-15T00:57:43.149Z,1.70
2024-01-15T01:00:12.656Z,1.68
2024-01-15T01:02:40.674Z,1.68
2024-01-15T01:05:08.818Z,1.68
2024-01-15T01:07:36.872Z,1.73
2024-01-15T01:10:05.464Z,1.72
2024-01-15T01:12:33.422Z,1.79
2024-01-15T01:15:01.777Z,1.84
2024-01-15T01:17:29.881Z,1.82
2024-01-15T01:19:58.095Z,1.77
2024-01-15T01:22:26.056Z,1.75
2024-01-15T01:24:53.905Z,1.78
2024-01-15T01:27:22.685Z,1.81
2024-01-15T01:29:50.761Z,1.81
2024-01-15T01:32:18.823Z,1.81
2024-01-15T01:34:47.022Z,1.78
2024-01-15T01:37:15.575Z,1.75
2024-01-15T01:39:45.839Z,1.79
2024-01-15T01:42:14.030Z,1.78
2024-01-15T01:44:41.998Z,1.80
2024-01-15T01:47:10.262Z,1.80
2024-01-15T01:49:38.691Z,1.74
2024-01-15T01:52:10.437Z,1.76
2024-01-15T01:54:40.449Z,1.74
2024-01-15T01:57:09.420Z,1.68
2024-01-15T01:59:37.634Z,1.74
2024-01-15T02:02:06.628Z,1.85
2024-01-15T02:04:34.951Z,1.87
2024-01-15T02:07:03.792Z,1.94
2024-01-15T02:09:33.380Z,1.94
2024-01-15T02:12:01.916Z,1.93
2024-01-15T02:14:29.768Z,1.93
2024-01-15T02:16:57.811Z,1.90
2024-01-15T02:19:25.823Z,1.91
2024-01-15T02:21:53.760Z,1.94
2024-01-15T02:24:21.687Z,1.99
2024-01-15T02:26:50.840Z,1.98
2024-01-15T02:29:18.833Z,2.01
2024-01-15T02:31:47.257Z,1.95
2024-01-15T02:34:15.390Z,1.96
2024-01-15T02:36:43.427Z,1.99
2024-01-15T02:39:11.409Z,1.98
2024-01-15T02:41:39.335Z,1.97
2024-01-15T02:44:07.262Z,1.92
2024-01-15T02:46:35.145Z,1.95
2024-01-15T02:49:03.203Z,1.99
2024-01-15T02:51:31.370Z,1.96
2024-01-15T02:53:59.312Z,1.93
2024-01-15T02:56:27.218Z,1.95
2024-01-15T02:58:55.133Z,1.94
2024-01-15T03:01:23.516Z,1.92
2024-01-15T03:03:52.056Z,1.94
2024-01-15T03:06:19.982Z,1.96
2024-01-15T03:08:47.902Z,1.95
2024-01-15T03:11:15.819Z,1.93
2024-01-15T03:13:43.723Z,1.94
2024-01-15T03:16:11.674Z,1.91
2024-01-15T03:18:39.774Z,1.93
2024-01-15T03:21:07.843Z,1.86
2024-01-15T03:23:35.877Z,1.78
2024-01-15T03:26:04.018Z,1.77
2024-01-15T03:28:31.918Z,1.77
2024-01-15T03:30:59.937Z,1.79
2024-01-15T03:33:28.037Z,1.71
2024-01-15T03:35:56.225Z,1.73
2024-01-15T03:38:24.845Z,1.73
2024-01-15T03:40:52.810Z,1.73
2024-01-15T03:43:20.841Z,1.73
2024-01-15T03:45:48.807Z,1.71
2024-01-15T03:48:17.027Z,1.70
2024-01-15T03:50:45.186Z,1.63
2024-01-15T03:53:13.101Z,1.59
2024-01-15T03:55:41.141Z,1.62
2024-01-15T03:58:09.224Z,1.65
2024-01-15T04:00:37.176Z,1.63
2024-01-15T04:03:05.574Z,1.60
2024-01-15T04:05:33.645Z,1.55
2024-01-15T04:08:02.032Z,1.60
2024-01-15T04:10:29.935Z,1.57
2024-01-15T04:13:00.655Z,1.52
2024-01-15T04:15:28.605Z,1.49
2024-01-15T04:17:56.563Z,1.53
2024-01-15T04:20:25.717Z,1.49
2024-01-15T04:22:53.942Z,1.48
2024-01-15T04:25:21.868Z,1.44
2024-01-15T04:27:49.906Z,1.31
2024-01-15T04:30:18.197Z,1.27
2024-01-15T04:32:46.540Z,1.24
2024-01-15T04:35:14.770Z,1.14
2024-01-15T04:37:42.742Z,1.09
2024-01-15T04:40:11.329Z,1.10
2024-01-15T04:42:39.307Z,1.16
2024-01-15T04:45:07.553Z,1.17
2024-01-15T04:47:37.884Z,1.16
2024-01-15T04:50:06.909Z,1.19
2024-01-15T04:52:34.756Z,1.18
2024-01-15T04:55:02.615Z,1.14
2024-01-15T04:57:30.634Z,1.15
2024-01-15T04:59:58.557Z,1.23
2024-01-15T05:02:26.750Z,1.27
2024-01-15T05:04:54.617Z,1.21
2024-01-15T05:07:22.883Z,1.23
2024-01-15T05:09:50.924Z,1.24
2024-01-15T05:12:19.048Z,1.24
2024-01-15T05:14:47.008Z,1.22
2024-01-15T05:17:14.834Z,1.25
2024-01-15T05:19:42.905Z,1.30
2024-01-15T05:22:10.908Z,1.35
2024-01-15T05:24:38.966Z,1.36
2024-01-15T05:27:06.916Z,1.26
2024-01-15T05:29:34.962Z,1.30
2024-01-15T05:32:03.158Z,1.33
2024-01-15T05:34:31.275Z,1.27
2024-01-15T05:36:59.469Z,1.35
2024-01-15T05:39:27.497Z,1.39
2024-01-15T05:41:55.520Z,1.33
2024-01-15T05:44:23.438Z,1.33
2024-01-15T05:46:51.355Z,1.38
2024-01-15T05:49:19.436Z,1.38
2024-01-15T05:51:47.633Z,1.37
2024-01-15T05:54:15.629Z,1.34
2024-01-15T05:56:43.616Z,1.34
2024-01-15T05:59:14.960Z,1.34
2024-01-15T06:01:43.854Z,1.37
2024-01-15T06:04:11.907Z,1.38
2024-01-15T06:06:39.954Z,1.35
2024-01-15T06:09:08.025Z,1.34
2024-01-15T06:11:35.947Z,1.40
2024-01-15T06:14:03.903Z,1.42
2024-01-15T06:16:32.016Z,1.49
2024-01-15T06:19:00.056Z,1.49
2024-01-15T06:21:28.187Z,1.45
2024-01-15T06:23:57.526Z,1.44
2024-01-15T06:26:25.815Z,1.47
2024-01-15T06:28:53.769Z,1.47
2024-01-15T06:31:21.798Z,1.44
2024-01-15T06:33:50.106Z,1.47
2024-01-15T06:36:18.374Z,1.45
2024-01-15T06:38:46.352Z,1.44
2024-01-15T06:41:14.351Z,1.47
2024-01-15T06:43:42.262Z,1.48
2024-01-15T06:46:10.233Z,1.55
2024-01-15T06:48:38.728Z,1.58
2024-01-15T06:51:06.728Z,1.54
2024-01-15T06:53:34.679Z,1.51
2024-01-15T06:56:02.589Z,1.55
2024-01-15T06:58:32.337Z,1.57
2024-01-15T07:01:00.966Z,1.59
2024-01-15T07:03:29.019Z,1.62
2024-01-15T07:05:57.132Z,1.58
2024-01-15T07:08:25.150Z,1.58
2024-01-15T07:10:53.130Z,1.61
2024-01-15T07:13:21.024Z,1.63
2024-01-15T07:15:49.178Z,1.56
2024-01-15T07:18:17.729Z,1.57
2024-01-15T07:20:45.754Z,1.56
2024-01-15T07:23:13.720Z,1.61
2024-01-15T07:25:42.045Z,1.66
2024-01-15T07:28:10.250Z,1.67
2024-01-15T07:30:40.251Z,1.70
2024-01-15T07:33:08.459Z,1.72
2024-01-15T07:35:36.395Z,1.76
2024-01-15T07:38:04.744Z,1.76
2024-01-15T07:40:32.646Z,1.81
2024-01-15T07:43:00.525Z,1.91
2024-01-15T07:45:28.636Z,1.83
2024-01-15T07:47:56.660Z,1.86
2024-01-15T07:50:24.652Z,1.87
2024-01-15T07:52:54.190Z,1.93
2024-01-15T07:55:22.149Z,1.96
2024-01-15T07:57:56.591Z,1.99
2024-01-15T08:00:30.639Z,2.03
2024-01-15T08:02:58.545Z,2.01
2024-01-15T08:05:26.478Z,1.95
2024-01-15T08:07:57.466Z,1.87
2024-01-15T08:10:26.326Z,1.81
2024-01-15T08:12:54.269Z,1.86
2024-01-15T08:15:22.284Z,1.89
2024-01-15T08:17:50.252Z,2.07
2024-01-15T08:20:18.387Z,2.07
2024-01-15T08:22:47.651Z,2.07
2024-01-15T08:25:15.905Z,1.97
2024-01-15T08:27:43.930Z,1.91
2024-01-15T08:30:12.840Z,1.89
2024-01-15T08:32:43.717Z,1.91
2024-01-15T08:35:12.722Z,1.91
2024-01-15T08:37:40.743Z,1.93
2024-01-15T08:40:09.406Z,1.97
2024-01-15T08:42:37.349Z,1.95
2024-01-15T08:45:05.765Z,1.96
2024-01-15T08:47:33.705Z,1.95
2024-01-15T08:50:01.697Z,1.98
2024-01-15T08:52:30.323Z,2.02
2024-01-15T08:54:58.581Z,1.92
2024-01-15T08:57:26.692Z,1.95
2024-01-15T08:59:56.139Z,1.88
2024-01-15T09:02:24.494Z,1.88
2024-01-15T09:04:53.177Z,1.97
2024-01-15T09:07:21.183Z,1.99
2024-01-15T09:09:49.107Z,2.06
2024-01-15T09:12:17.897Z,2.02
2024-01-15T09:14:46.058Z,2.17
2024-01-15T09:17:14.070Z,2.14
2024-01-15T09:19:42.878Z,2.34
2024-01-15T09:22:11.152Z,2.53
2024-01-15T09:24:42.440Z,2.29
2024-01-15T09:27:10.608Z,2.00
2024-01-15T09:29:40.936Z,1.70
2024-01-15T09:32:09.595Z,1.55
2024-01-15T09:34:37.773Z,1.36
2024-01-15T09:37:06.221Z,1.27
2024-01-15T09:39:34.258Z,1.18
2024-01-15T09:42:04.485Z,1.24
2024-01-15T09:44:33.090Z,1.45
2024-01-15T09:47:02.156Z,1.50
2024-01-15T09:49:31.036Z,1.55
2024-01-15T09:52:06.330Z,1.59
2024-01-15T09:54:43.517Z,1.57
2024-01-15T09:57:12.572Z,1.59
2024-01-15T09:59:44.647Z,1.56
2024-01-15T10:02:18.286Z,1.76
2024-01-15T10:04:47.322Z,2.18
2024-01-15T10:07:18.702Z,2.13
2024-01-15T10:09:47.702Z,1.97
2024-01-15T10:12:15.667Z,1.93
2024-01-15T10:14:44.467Z,1.77
2024-01-15T10:17:16.307Z,1.57
2024-01-15T10:19:49.456Z,1.68
2024-01-15T10:22:19.704Z,1.67
2024-01-15T10:24:48.682Z,1.60
2024-01-15T10:27:17.590Z,1.50
2024-01-15T10:29:45.742Z,1.64
2024-01-15T10:32:13.712Z,1.81
2024-01-15T10:34:43.130Z,1.79
2024-01-15T10:37:12.146Z,1.66
2024-01-15T10:39:40.442Z,1.60
2024-01-15T10:42:08.820Z,1.62
2024-01-15T10:44:36.930Z,1.52
2024-01-15T10:47:05.410Z,1.56
2024-01-15T10:49:34.352Z,1.63
2024-01-15T10:52:03.926Z,1.74
2024-01-15T10:54:33.667Z,1.98
2024-01-15T10:57:03.250Z,2.11
2024-01-15T10:59:31.423Z,1.91
2024-01-15T11:02:00.362Z,1.73
2024-01-15T11:04:29.884Z,1.64
2024-01-15T11:06:58.370Z,1.50
2024-01-15T11:09:26.583Z,1.67
2024-01-15T11:12:13.380Z,1.85
2024-01-15T11:14:51.211Z,1.68
2024-01-15T11:17:19.821Z,1.81
2024-01-15T11:19:51.669Z,1.97
2024-01-15T11:22:32.064Z,2.19
2024-01-15T11:25:14.690Z,2.24
2024-01-15T11:27:53.726Z,2.41
2024-01-15T11:30:27.355Z,2.42
2024-01-15T11:32:55.678Z,2.15
2024-01-15T11:35:28.787Z,2.02
2024-01-15T11:37:59.000Z,2.06
2024-01-15T11:40:33.933Z,2.11
2024-01-15T11:43:02.040Z,2.16
2024-01-15T11:45:31.753Z,2.05
2024-01-15T11:48:14.968Z,1.88
2024-01-15T11:50:46.538Z,1.92
2024-01-15T11:53:29.318Z,2.16
2024-01-15T11:56:00.583Z,2.24
2024-01-15T11:58:28.623Z,2.09
2024-01-15T12:00:56.810Z,2.05
2024-01-15T12:03:25.948Z,2.05
2024-01-15T12:05:54.520Z,2.05
2024-01-15T12:08:26.217Z,2.20
2024-01-15T12:10:54.771Z,2.33
2024-01-15T12:13:22.835Z,2.34
2024-01-15T12:15:51.525Z,2.45
2024-01-15T12:18:20.926Z,2.60
2024-01-15T12:20:49.394Z,2.54
2024-01-15T12:23:18.695Z,2.58
2024-01-15T12:25:48.103Z,2.46
2024-01-15T12:28:16.791Z,2.45
2024-01-15T12:30:50.740Z,2.21
2024-01-15T12:33:21.363Z,2.12
2024-01-15T12:35:49.544Z,2.23
2024-01-15T12:38:21.237Z,2.34
2024-01-15T12:40:49.625Z,2.77
2024-01-15T12:43:19.034Z,3.20
2024-01-15T12:45:47.664Z,3.46
2024-01-15T12:48:19.023Z,3.42
2024-01-15T12:50:48.699Z,3.32
2024-01-15T12:53:17.252Z,3.03
2024-01-15T12:55:45.185Z,2.83
2024-01-15T12:58:13.174Z,2.84
2024-01-15T13:00:41.172Z,2.88
2024-01-15T13:03:09.813Z,2.79
2024-01-15T13:05:38.607Z,2.74
2024-01-15T13:08:06.866Z,2.81
2024-01-15T13:10:34.866Z,2.88
2024-01-15T13:13:03.255Z,2.88
2024-01-15T13:15:32.404Z,2.93
2024-01-15T13:18:00.328Z,2.89
2024-01-15T13:20:28.286Z,2.92
2024-01-15T13:22:56.389Z,3.03
2024-01-15T13:25:25.957Z,3.04
2024-01-15T13:27:53.927Z,2.99
2024-01-15T13:30:21.974Z,2.95
2024-01-15T13:32:50.112Z,3.05
2024-01-15T13:35:18.109Z,3.09
2024-01-15T13:37:46.045Z,2.83
2024-01-15T13:40:18.110Z,2.70
2024-01-15T13:42:47.636Z,2.62
2024-01-15T13:45:16.177Z,2.61
2024-01-15T13:47:44.995Z,2.57
2024-01-15T13:50:13.280Z,2.40
2024-01-15T13:52:41.600Z,2.37
2024-01-15T13:55:10.401Z,2.27
2024-01-15T13:57:38.818Z,1.91
2024-01-15T14:00:12.421Z,1.63
2024-01-15T14:02:40.829Z,1.53
2024-01-15T14:05:09.435Z,1.41
2024-01-15T14:07:37.503Z,1.40
2024-01-15T14:10:07.002Z,1.40
2024-01-15T14:12:35.554Z,1.35
2024-01-15T14:15:04.941Z,1.51
2024-01-15T14:17:34.594Z,1.74
2024-01-15T14:20:02.913Z,2.03
2024-01-15T14:22:30.824Z,2.06
2024-01-15T14:24:58.760Z,2.00
2024-01-15T14:27:27.438Z,1.99
2024-01-15T14:29:55.342Z,2.09
2024-01-15T14:32:23.444Z,2.11
2024-01-15T14:34:51.610Z,2.06
2024-01-15T14:37:19.575Z,2.13
2024-01-15T14:39:47.488Z,2.07
2024-01-15T14:42:15.412Z,2.07
2024-01-15T14:44:43.383Z,1.90
2024-01-15T14:47:11.332Z,1.54
2024-01-15T14:49:39.361Z,1.30
2024-01-15T14:52:07.796Z,1.08
2024-01-15T14:54:36.028Z,1.00
2024-01-15T14:57:04.337Z,0.94
2024-01-15T14:59:32.255Z,0.82
2024-01-15T15:02:00.338Z,0.82
2024-01-15T15:04:29.777Z,0.79
2024-01-15T15:06:58.272Z,0.82
2024-01-15T15:09:26.431Z,0.82
2024-01-15T15:11:54.354Z,0.83
2024-01-15T15:14:23.068Z,0.70
2024-01-15T15:16:51.234Z,0.68
2024-01-15T15:19:20.290Z,0.75
2024-01-15T15:21:48.830Z,0.76
2024-01-15T15:24:16.784Z,0.77
2024-01-15T15:26:44.974Z,0.76
2024-01-15T15:29:13.038Z,0.75
2024-01-15T15:31:41.291Z,0.75
2024-01-15T15:34:09.477Z,0.63
2024-01-15T15:36:37.697Z,0.70
2024-01-15T15:39:05.590Z,0.67
2024-01-15T15:41:33.836Z,0.70
2024-01-15T15:44:01.772Z,0.67
2024-01-15T15:46:30.455Z,0.63
2024-01-15T15:48:58.574Z,0.65
2024-01-15T15:51:26.734Z,0.60
2024-01-15T15:53:54.708Z,0.66
2024-01-15T15:56:22.680Z,0.66
2024-01-15T15:58:50.609Z,0.64
2024-01-15T16:01:18.809Z,0.66
2024-01-15T16:03:47.172Z,0.65
2024-01-15T16:06:15.471Z,0.56
2024-01-15T16:08:43.471Z,0.49
2024-01-15T16:11:11.893Z,0.41
2024-01-15T16:13:39.880Z,0.33
2024-01-15T16:23:09.778Z,0.21
2024-01-15T16:23:22.878Z,0.25
2024-01-15T16:23:37.854Z,0.22
2024-01-15T16:24:42.044Z,0.21
2024-01-15T16:27:18.400Z,0.25
2024-01-15T16:29:46.296Z,0.29
2024-01-15T16:32:14.292Z,0.29
2024-01-15T16:34:42.268Z,0.27
2024-01-15T16:37:10.365Z,0.25
2024-01-15T16:39:38.306Z,0.25
2024-01-15T16:42:06.705Z,0.21
2024-01-15T16:44:34.930Z,0.18
2024-01-15T16:47:07.326Z,0.14
2024-01-15T16:49:36.774Z,0.21
2024-01-15T16:52:06.550Z,0.19
2024-01-15T16:54:36.256Z,0.22
2024-01-15T16:57:04.443Z,0.20
2024-01-15T16:59:32.519Z,0.12
2024-01-15T17:02:00.502Z,0.05
2024-01-15T17:04:28.581Z,0.13
2024-01-15T17:06:57.337Z,0.12
2024-01-15T17:09:25.427Z,0.05
2024-01-15T17:11:53.334Z,0.10
2024-01-15T17:14:21.324Z,0.14
2024-01-15T17:16:49.300Z,0.15
2024-01-15T17:19:17.459Z,0.19
2024-01-15T17:21:45.419Z,0.23
2024-01-15T17:24:14.216Z,0.30
2024-01-15T17:26:42.355Z,0.23
2024-01-15T17:29:10.531Z,0.20
2024-01-15T17:31:38.677Z,0.24
2024-01-15T17:34:07.177Z,0.21
2024-01-15T17:36:35.407Z,0.20
2024-01-15T17:39:05.417Z,0.18
2024-01-15T17:41:36.534Z,0.20
2024-01-15T17:44:04.757Z,0.17
2024-01-15T17:46:32.659Z,0.24
2024-01-15T17:49:04.259Z,0.19
2024-01-15T17:51:32.962Z,0.16
2024-01-15T17:54:02.085Z,0.16
2024-01-15T17:56:30.446Z,0.20
2024-01-15T17:58:58.599Z,0.17
2024-01-15T18:01:26.586Z,0.14
2024-01-15T18:03:54.762Z,0.14
2024-01-15T18:06:22.939Z,0.10
2024-01-15T18:08:51.472Z,0.11
2024-01-15T18:11:20.195Z,0.07
2024-01-15T18:13:48.539Z,0.12
2024-01-15T18:16:20.396Z,0.03
2024-01-15T18:18:48.443Z,0.03
2024-01-15T18:21:24.478Z,0.04
2024-01-15T18:23:52.437Z,0.04
2024-01-15T18:26:20.412Z,-0.05
2024-01-15T18:28:49.734Z,-0.04
2024-01-15T18:31:17.615Z,-0.09
2024-01-15T18:33:45.608Z,-0.06
2024-01-15T18:36:13.678Z,-0.16
2024-01-15T18:38:41.753Z,-0.27
2024-01-15T18:41:09.854Z,-0.27
2024-01-15T18:43:37.858Z,-0.25
2024-01-15T18:46:09.106Z,-0.26
2024-01-15T18:48:37.424Z,-0.27
2024-01-15T18:51:05.581Z,-0.21
2024-01-15T18:53:33.504Z,-0.17
2024-01-15T18:56:03.321Z,-0.17
2024-01-15T18:58:32.269Z,-0.16
2024-01-15T19:01:00.569Z,-0.17
2024-01-15T19:03:28.688Z,-0.16
2024-01-15T19:05:56.590Z,-0.22
2024-01-15T19:08:24.451Z,-0.20
2024-01-15T19:10:52.822Z,-0.21
2024-01-15T19:13:20.729Z,-0.20
2024-01-15T19:15:51.636Z,-0.24
2024-01-15T19:18:19.709Z,-0.23
2024-01-15T19:20:47.917Z,-0.29
2024-01-15T19:23:15.938Z,-0.35
2024-01-15T19:25:44.029Z,-0.36
2024-01-15T19:28:11.969Z,-0.34
2024-01-15T19:30:41.096Z,-0.33
2024-01-15T19:33:09.154Z,-0.35
2024-01-15T19:35:38.076Z,-0.35
2024-01-15T19:38:07.336Z,-0.31
2024-01-15T19:40:35.650Z,-0.35
2024-01-15T19:43:04.264Z,-0.29
2024-01-15T19:45:32.183Z,-0.24
2024-01-15T19:48:00.922Z,-0.36
2024-01-15T19:50:28.989Z,-0.32
2024-01-15T19:52:56.883Z,-0.29
2024-01-15T19:55:24.875Z,-0.26
2024-01-15T19:57:52.815Z,-0.28
2024-01-15T20:00:21.281Z,-0.40
2024-01-15T20:02:49.359Z,-0.38
2024-01-15T20:05:17.506Z,-0.33
2024-01-15T20:07:45.448Z,-0.32
2024-01-15T20:10:13.701Z,-0.27
2024-01-15T20:12:41.630Z,-0.26
2024-01-15T20:15:10.088Z,-0.27
2024-01-15T20:17:38.319Z,-0.30
2024-01-15T20:20:11.717Z,-0.23
2024-01-15T20:22:39.941Z,-0.27
2024-01-15T20:25:10.710Z,-0.27
2024-01-15T20:27:38.732Z,-0.31
2024-01-15T20:30:07.820Z,-0.29
2024-01-15T20:32:38.200Z,-0.32
2024-01-15T20:35:07.139Z,-0.28
2024-01-15T20:37:35.504Z,-0.28
2024-01-15T20:40:05.883Z,-0.29
2024-01-15T20:42:33.812Z,-0.32
2024-01-15T20:45:03.309Z,-0.28
2024-01-15T20:47:32.743Z,-0.24
2024-01-15T20:50:00.914Z,-0.21
2024-01-15T20:52:28.868Z,-0.27
2024-01-15T20:54:56.790Z,-0.36
2024-01-15T20:57:24.687Z,-0.35
2024-01-15T20:59:52.617Z,-0.35
2024-01-15T21:02:22.422Z,-0.25
2024-01-15T21:04:50.784Z,-0.20
2024-01-15T21:07:18.690Z,-0.21
2024-01-15T21:09:46.725Z,-0.26
2024-01-15T21:12:14.741Z,-0.22
2024-01-15T21:14:42.663Z,-0.19
2024-01-15T21:17:10.782Z,-0.18
2024-01-15T21:19:38.836Z,-0.16
2024-01-15T21:22:06.738Z,-0.20
2024-01-15T21:24:34.804Z,-0.20
2024-01-15T21:27:03.016Z,-0.22
2024-01-15T21:29:30.964Z,-0.23
2024-01-15T21:31:59.506Z,-0.23
2024-01-15T21:34:27.461Z,-0.25
2024-01-15T21:36:55.424Z,-0.29
2024-01-15T21:39:23.330Z,-0.31
2024-01-15T21:41:52.791Z,-0.35
2024-01-15T21:44:20.835Z,-0.48
2024-01-15T21:46:49.228Z,-0.53
2024-01-15T21:49:17.326Z,-0.54
2024-01-15T21:51:45.380Z,-0.51
2024-01-15T21:54:13.311Z,-0.50
2024-01-15T21:56:41.260Z,-0.51
2024-01-15T21:59:09.402Z,-0.45
2024-01-15T22:01:37.413Z,-0.47
2024-01-15T22:04:05.451Z,-0.54
2024-01-15T22:06:36.413Z,-0.59
2024-01-15T22:09:04.517Z,-0.58
2024-01-15T22:11:32.427Z,-0.67
2024-01-15T22:14:00.534Z,-0.68
2024-01-15T22:16:28.667Z,-0.65
2024-01-15T22:18:59.566Z,-0.63
2024-01-15T22:21:29.429Z,-0.61
2024-01-15T22:23:57.337Z,-0.60
2024-01-15T22:26:25.344Z,-0.63
2024-01-15T22:28:53.314Z,-0.58
2024-01-15T22:31:21.235Z,-0.55
2024-01-15T22:33:49.270Z,-0.56
2024-01-15T22:36:17.234Z,-0.58
2024-01-15T22:38:45.371Z,-0.58
2024-01-15T22:41:13.460Z,-0.50
2024-01-15T22:43:41.722Z,-0.48
2024-01-15T22:46:11.144Z,-0.51
2024-01-15T22:48:39.373Z,-0.56
2024-01-15T22:51:08.048Z,-0.61
2024-01-15T22:53:36.087Z,-0.55
2024-01-15T22:56:04.249Z,-0.60
2024-01-15T22:58:32.140Z,-0.65
2024-01-15T23:01:00.795Z,-0.63
2024-01-15T23:03:28.826Z,-0.60
2024-01-15T23:05:56.895Z,-0.72
2024-01-15T23:08:24.954Z,-0.70
2024-01-15T23:10:52.825Z,-0.84
2024-01-15T23:13:20.731Z,-0.98
2024-01-15T23:15:48.801Z,-0.95
2024-01-15T23:18:16.945Z,-1.00
2024-01-15T23:20:45.412Z,-1.06
2024-01-15T23:23:13.458Z,-1.09
2024-01-15T23:25:41.384Z,-1.13
2024-01-15T23:28:09.304Z,-1.20
2024-01-15T23:30:37.401Z,-1.27
2024-01-15T23:33:06.066Z,-1.30
2024-01-15T23:35:34.326Z,-1.32
2024-01-15T23:38:02.259Z,-1.30
2024-01-15T23:40:30.166Z,-1.29
2024-01-15T23:42:58.175Z,-1.28
2024-01-15T23:45:26.186Z,-1.30
2024-01-15T23:47:54.127Z,-1.30
2024-01-15T23:50:22.618Z,-1.29
2024-01-15T23:52:50.608Z,-1.33
2024-01-15T23:55:18.487Z,-1.36
2024-01-15T23:57:46.388Z,-1.39
